sensor_id;sensor_type;location;lat;lon;timestamp;P1;durP1;ratioP1;P2;durP2;ratioP2
5965;SDS011;3009;43.224;27.976;2023-02-22T00:02:05;4.70;;;4.20;;
5965;SDS011;3009;43.224;27.976;2023-02-22T00:04:51;4.43;;;4.03;;
5965;SDS011;3009;43.224;27.976;2023-02-22T00:07:20;4.50;;;4.10;;
5965;SDS011;3009;43.224;27.976;2023-02-22T00:09:51;7.50;;;4.60;;
5965;SDS011;3009;43.224;27.976;2023-02-22T00:12:19;5.07;;;4.60;;
5965;SDS011;3009;43.224;27.976;2023-02-22T00:14:47;5.80;;;4.23;;
5965;SDS011;3009;43.224;27.976;2023-02-22T00:17:17;6.17;;;4.20;;
5965;SDS011;3009;43.224;27.976;2023-02-22T00:19:47;4.33;;;3.90;;
5965;SDS011;3009;43.224;27.976;2023-02-22T00:22:15;4.47;;;4.07;;
5965;SDS011;3009;43.224;27.976;2023-02-22T00:24:44;4.47;;;4.07;;
5965;SDS011;3009;43.224;27.976;2023-02-22T00:27:13;4.43;;;4.03;;
5965;SDS011;3009;43.224;27.976;2023-02-22T00:29:43;4.90;;;4.47;;
5965;SDS011;3009;43.224;27.976;2023-02-22T00:32:11;5.40;;;4.87;;
5965;SDS011;3009;43.224;27.976;2023-02-22T00:34:42;4.20;;;3.80;;
5965;SDS011;3009;43.224;27.976;2023-02-22T00:37:10;4.63;;;4.23;;
5965;SDS011;3009;43.224;27.976;2023-02-22T00:39:38;5.77;;;4.40;;
5965;SDS011;3009;43.224;27.976;2023-02-22T00:42:07;4.80;;;4.40;;
5965;SDS011;3009;43.224;27.976;2023-02-22T00:44:35;5.60;;;4.77;;
5965;SDS011;3009;43.224;27.976;2023-02-22T00:47:03;6.23;;;4.60;;
5965;SDS011;3009;43.224;27.976;2023-02-22T00:49:31;5.30;;;4.53;;
5965;SDS011;3009;43.224;27.976;2023-02-22T00:52:01;5.63;;;4.70;;
5965;SDS011;3009;43.224;27.976;2023-02-22T00:54:30;5.90;;;4.90;;
5965;SDS011;3009;43.224;27.976;2023-02-22T00:56:58;4.97;;;4.47;;
5965;SDS011;3009;43.224;27.976;2023-02-22T00:59:27;6.13;;;4.80;;
5965;SDS011;3009;43.224;27.976;2023-02-22T01:01:56;7.40;;;4.70;;
5965;SDS011;3009;43.224;27.976;2023-02-22T01:04:25;6.63;;;4.73;;
5965;SDS011;3009;43.224;27.976;2023-02-22T01:06:53;5.00;;;4.60;;
5965;SDS011;3009;43.224;27.976;2023-02-22T01:09:23;5.37;;;4.50;;
5965;SDS011;3009;43.224;27.976;2023-02-22T01:11:51;5.10;;;4.60;;
5965;SDS011;3009;43.224;27.976;2023-02-22T01:14:22;6.27;;;5.00;;
5965;SDS011;3009;43.224;27.976;2023-02-22T01:16:52;5.53;;;5.03;;
5965;SDS011;3009;43.224;27.976;2023-02-22T01:19:20;5.00;;;4.30;;
5965;SDS011;3009;43.224;27.976;2023-02-22T01:21:49;5.40;;;4.90;;
5965;SDS011;3009;43.224;27.976;2023-02-22T01:24:18;8.90;;;4.93;;
5965;SDS011;3009;43.224;27.976;2023-02-22T01:26:49;5.77;;;5.17;;
5965;SDS011;3009;43.224;27.976;2023-02-22T01:29:18;5.30;;;4.23;;
5965;SDS011;3009;43.224;27.976;2023-02-22T01:31:51;8.10;;;5.47;;
5965;SDS011;3009;43.224;27.976;2023-02-22T01:34:21;7.57;;;4.60;;
5965;SDS011;3009;43.224;27.976;2023-02-22T01:36:51;4.73;;;4.30;;
5965;SDS011;3009;43.224;27.976;2023-02-22T01:39:19;5.57;;;4.70;;
5965;SDS011;3009;43.224;27.976;2023-02-22T01:41:49;8.90;;;4.80;;
5965;SDS011;3009;43.224;27.976;2023-02-22T01:44:20;5.43;;;4.93;;
5965;SDS011;3009;43.224;27.976;2023-02-22T01:46:53;5.63;;;4.37;;
5965;SDS011;3009;43.224;27.976;2023-02-22T01:49:22;7.53;;;4.40;;
5965;SDS011;3009;43.224;27.976;2023-02-22T01:51:53;5.17;;;4.67;;
5965;SDS011;3009;43.224;27.976;2023-02-22T01:54:24;10.47;;;4.70;;
5965;SDS011;3009;43.224;27.976;2023-02-22T01:56:58;6.27;;;5.10;;
5965;SDS011;3009;43.224;27.976;2023-02-22T01:59:32;7.27;;;4.90;;
5965;SDS011;3009;43.224;27.976;2023-02-22T02:02:02;5.60;;;4.47;;
5965;SDS011;3009;43.224;27.976;2023-02-22T02:04:31;4.50;;;4.17;;
5965;SDS011;3009;43.224;27.976;2023-02-22T02:07:03;5.97;;;5.30;;
5965;SDS011;3009;43.224;27.976;2023-02-22T02:09:35;7.13;;;4.70;;
5965;SDS011;3009;43.224;27.976;2023-02-22T02:12:09;5.50;;;4.83;;
5965;SDS011;3009;43.224;27.976;2023-02-22T02:14:39;8.10;;;5.40;;
5965;SDS011;3009;43.224;27.976;2023-02-22T02:17:09;10.83;;;6.60;;
5965;SDS011;3009;43.224;27.976;2023-02-22T02:19:41;29.83;;;10.63;;
5965;SDS011;3009;43.224;27.976;2023-02-22T02:22:18;19.20;;;9.40;;
5965;SDS011;3009;43.224;27.976;2023-02-22T02:25:09;20.43;;;8.60;;
5965;SDS011;3009;43.224;27.976;2023-02-22T02:31:06;11.13;;;5.73;;
5965;SDS011;3009;43.224;27.976;2023-02-22T02:33:55;24.90;;;9.90;;
5965;SDS011;3009;43.224;27.976;2023-02-22T02:36:28;15.37;;;6.97;;
5965;SDS011;3009;43.224;27.976;2023-02-22T02:39:00;8.23;;;6.30;;
5965;SDS011;3009;43.224;27.976;2023-02-22T02:41:38;6.23;;;5.63;;
5965;SDS011;3009;43.224;27.976;2023-02-22T02:44:10;7.50;;;5.43;;
5965;SDS011;3009;43.224;27.976;2023-02-22T02:46:43;5.87;;;4.97;;
5965;SDS011;3009;43.224;27.976;2023-02-22T02:49:18;6.40;;;4.90;;
5965;SDS011;3009;43.224;27.976;2023-02-22T02:51:52;5.87;;;5.30;;
5965;SDS011;3009;43.224;27.976;2023-02-22T02:54:22;5.23;;;4.73;;
5965;SDS011;3009;43.224;27.976;2023-02-22T02:56:51;6.63;;;5.07;;
5965;SDS011;3009;43.224;27.976;2023-02-22T02:59:23;5.60;;;5.10;;
5965;SDS011;3009;43.224;27.976;2023-02-22T03:02:03;6.20;;;5.10;;
5965;SDS011;3009;43.224;27.976;2023-02-22T03:04:45;9.13;;;6.13;;
5965;SDS011;3009;43.224;27.976;2023-02-22T03:07:27;9.20;;;6.40;;
5965;SDS011;3009;43.224;27.976;2023-02-22T03:10:09;9.27;;;5.30;;
5965;SDS011;3009;43.224;27.976;2023-02-22T03:12:47;10.30;;;7.50;;
5965;SDS011;3009;43.224;27.976;2023-02-22T03:15:27;11.00;;;7.80;;
5965;SDS011;3009;43.224;27.976;2023-02-22T03:18:03;7.23;;;4.87;;
5965;SDS011;3009;43.224;27.976;2023-02-22T03:20:38;5.93;;;5.33;;
5965;SDS011;3009;43.224;27.976;2023-02-22T03:23:13;8.40;;;5.80;;
5965;SDS011;3009;43.224;27.976;2023-02-22T03:25:51;8.33;;;4.90;;
5965;SDS011;3009;43.224;27.976;2023-02-22T03:28:23;10.50;;;5.30;;
5965;SDS011;3009;43.224;27.976;2023-02-22T03:30:55;10.13;;;5.50;;
5965;SDS011;3009;43.224;27.976;2023-02-22T03:33:29;8.27;;;5.50;;
5965;SDS011;3009;43.224;27.976;2023-02-22T03:36:04;6.97;;;4.80;;
5965;SDS011;3009;43.224;27.976;2023-02-22T03:38:39;9.83;;;5.47;;
5965;SDS011;3009;43.224;27.976;2023-02-22T03:41:09;6.07;;;4.20;;
5965;SDS011;3009;43.224;27.976;2023-02-22T03:43:41;6.00;;;4.90;;
5965;SDS011;3009;43.224;27.976;2023-02-22T03:46:12;5.77;;;5.10;;
5965;SDS011;3009;43.224;27.976;2023-02-22T03:48:45;7.40;;;5.23;;
5965;SDS011;3009;43.224;27.976;2023-02-22T03:51:20;6.10;;;5.50;;
5965;SDS011;3009;43.224;27.976;2023-02-22T03:53:50;7.80;;;5.40;;
5965;SDS011;3009;43.224;27.976;2023-02-22T03:56:19;6.20;;;5.40;;
5965;SDS011;3009;43.224;27.976;2023-02-22T03:58:50;10.60;;;5.67;;
5965;SDS011;3009;43.224;27.976;2023-02-22T04:01:19;7.50;;;6.27;;
5965;SDS011;3009;43.224;27.976;2023-02-22T04:03:49;8.33;;;5.40;;
5965;SDS011;3009;43.224;27.976;2023-02-22T04:06:17;6.83;;;6.07;;
5965;SDS011;3009;43.224;27.976;2023-02-22T04:08:46;8.10;;;6.07;;
5965;SDS011;3009;43.224;27.976;2023-02-22T04:11:15;6.07;;;5.47;;
5965;SDS011;3009;43.224;27.976;2023-02-22T04:13:43;11.43;;;6.07;;
5965;SDS011;3009;43.224;27.976;2023-02-22T04:16:11;10.50;;;5.90;;
5965;SDS011;3009;43.224;27.976;2023-02-22T04:18:40;7.00;;;5.53;;
5965;SDS011;3009;43.224;27.976;2023-02-22T04:21:08;10.97;;;5.40;;
5965;SDS011;3009;43.224;27.976;2023-02-22T04:23:36;7.00;;;5.17;;
5965;SDS011;3009;43.224;27.976;2023-02-22T04:26:06;7.00;;;5.37;;
5965;SDS011;3009;43.224;27.976;2023-02-22T04:28:34;5.83;;;5.23;;
5965;SDS011;3009;43.224;27.976;2023-02-22T04:31:02;5.70;;;5.20;;
5965;SDS011;3009;43.224;27.976;2023-02-22T04:33:30;7.77;;;6.17;;
5965;SDS011;3009;43.224;27.976;2023-02-22T04:35:59;7.00;;;5.47;;
5965;SDS011;3009;43.224;27.976;2023-02-22T04:38:27;7.80;;;5.90;;
5965;SDS011;3009;43.224;27.976;2023-02-22T04:40:55;9.53;;;6.23;;
5965;SDS011;3009;43.224;27.976;2023-02-22T04:43:25;8.33;;;6.60;;
5965;SDS011;3009;43.224;27.976;2023-02-22T04:45:53;14.03;;;6.50;;
5965;SDS011;3009;43.224;27.976;2023-02-22T04:48:21;12.40;;;6.20;;
5965;SDS011;3009;43.224;27.976;2023-02-22T04:50:49;33.77;;;8.27;;
5965;SDS011;3009;43.224;27.976;2023-02-22T04:53:17;12.57;;;6.10;;
5965;SDS011;3009;43.224;27.976;2023-02-22T04:55:45;11.17;;;6.17;;
5965;SDS011;3009;43.224;27.976;2023-02-22T04:58:14;7.93;;;5.70;;
5965;SDS011;3009;43.224;27.976;2023-02-22T05:00:43;7.67;;;6.37;;
5965;SDS011;3009;43.224;27.976;2023-02-22T05:03:12;6.70;;;5.90;;
5965;SDS011;3009;43.224;27.976;2023-02-22T05:05:41;7.27;;;5.83;;
5965;SDS011;3009;43.224;27.976;2023-02-22T05:08:09;9.27;;;6.03;;
5965;SDS011;3009;43.224;27.976;2023-02-22T05:10:37;7.27;;;5.73;;
5965;SDS011;3009;43.224;27.976;2023-02-22T05:13:05;6.77;;;6.10;;
5965;SDS011;3009;43.224;27.976;2023-02-22T05:15:34;8.30;;;6.00;;
5965;SDS011;3009;43.224;27.976;2023-02-22T05:18:04;11.20;;;7.40;;
5965;SDS011;3009;43.224;27.976;2023-02-22T05:20:33;19.17;;;14.90;;
5965;SDS011;3009;43.224;27.976;2023-02-22T05:23:02;13.63;;;10.20;;
5965;SDS011;3009;43.224;27.976;2023-02-22T05:25:33;13.50;;;10.87;;
5965;SDS011;3009;43.224;27.976;2023-02-22T05:28:02;20.10;;;10.47;;
5965;SDS011;3009;43.224;27.976;2023-02-22T05:30:32;16.93;;;9.73;;
5965;SDS011;3009;43.224;27.976;2023-02-22T05:33:10;10.20;;;7.43;;
5965;SDS011;3009;43.224;27.976;2023-02-22T05:35:39;13.43;;;5.80;;
5965;SDS011;3009;43.224;27.976;2023-02-22T05:38:08;12.30;;;6.83;;
5965;SDS011;3009;43.224;27.976;2023-02-22T05:40:37;7.20;;;6.20;;
5965;SDS011;3009;43.224;27.976;2023-02-22T05:43:05;11.00;;;6.83;;
5965;SDS011;3009;43.224;27.976;2023-02-22T05:45:34;13.40;;;7.03;;
5965;SDS011;3009;43.224;27.976;2023-02-22T05:48:02;20.13;;;8.03;;
5965;SDS011;3009;43.224;27.976;2023-02-22T05:50:32;15.93;;;11.33;;
5965;SDS011;3009;43.224;27.976;2023-02-22T05:53:01;25.93;;;15.83;;
5965;SDS011;3009;43.224;27.976;2023-02-22T05:55:32;12.80;;;8.47;;
5965;SDS011;3009;43.224;27.976;2023-02-22T05:58:00;7.30;;;6.30;;
5965;SDS011;3009;43.224;27.976;2023-02-22T06:00:31;16.93;;;8.27;;
5965;SDS011;3009;43.224;27.976;2023-02-22T06:03:02;11.73;;;7.83;;
5965;SDS011;3009;43.224;27.976;2023-02-22T06:05:33;9.03;;;6.90;;
5965;SDS011;3009;43.224;27.976;2023-02-22T06:08:03;11.87;;;7.60;;
5965;SDS011;3009;43.224;27.976;2023-02-22T06:10:33;10.70;;;7.23;;
5965;SDS011;3009;43.224;27.976;2023-02-22T06:13:01;7.93;;;6.97;;
5965;SDS011;3009;43.224;27.976;2023-02-22T06:15:31;11.93;;;6.33;;
5965;SDS011;3009;43.224;27.976;2023-02-22T06:18:00;10.43;;;6.90;;
5965;SDS011;3009;43.224;27.976;2023-02-22T06:20:30;7.93;;;6.83;;
5965;SDS011;3009;43.224;27.976;2023-02-22T06:23:00;10.03;;;7.43;;
5965;SDS011;3009;43.224;27.976;2023-02-22T06:25:28;9.63;;;6.57;;
5965;SDS011;3009;43.224;27.976;2023-02-22T06:27:58;7.43;;;6.73;;
5965;SDS011;3009;43.224;27.976;2023-02-22T06:30:27;15.03;;;6.93;;
5965;SDS011;3009;43.224;27.976;2023-02-22T06:32:56;8.37;;;6.63;;
5965;SDS011;3009;43.224;27.976;2023-02-22T06:35:24;11.10;;;6.00;;
5965;SDS011;3009;43.224;27.976;2023-02-22T06:37:53;7.03;;;6.27;;
5965;SDS011;3009;43.224;27.976;2023-02-22T06:40:22;17.60;;;6.30;;
5965;SDS011;3009;43.224;27.976;2023-02-22T06:42:55;6.97;;;6.30;;
5965;SDS011;3009;43.224;27.976;2023-02-22T06:45:24;16.80;;;10.43;;
5965;SDS011;3009;43.224;27.976;2023-02-22T06:47:52;10.30;;;7.87;;
5965;SDS011;3009;43.224;27.976;2023-02-22T06:50:22;13.83;;;7.30;;
5965;SDS011;3009;43.224;27.976;2023-02-22T06:52:52;10.17;;;6.87;;
5965;SDS011;3009;43.224;27.976;2023-02-22T06:55:23;6.80;;;6.10;;
5965;SDS011;3009;43.224;27.976;2023-02-22T06:57:52;6.90;;;6.20;;
5965;SDS011;3009;43.224;27.976;2023-02-22T07:00:21;16.00;;;8.73;;
5965;SDS011;3009;43.224;27.976;2023-02-22T07:02:54;6.93;;;6.23;;
5965;SDS011;3009;43.224;27.976;2023-02-22T07:05:23;7.60;;;5.90;;
5965;SDS011;3009;43.224;27.976;2023-02-22T07:07:53;7.53;;;6.17;;
5965;SDS011;3009;43.224;27.976;2023-02-22T07:12:54;12.23;;;5.47;;
5965;SDS011;3009;43.224;27.976;2023-02-22T07:15:24;6.53;;;5.93;;
5965;SDS011;3009;43.224;27.976;2023-02-22T07:17:54;8.87;;;6.20;;
5965;SDS011;3009;43.224;27.976;2023-02-22T07:20:22;8.27;;;6.30;;
5965;SDS011;3009;43.224;27.976;2023-02-22T07:22:52;7.83;;;6.40;;
5965;SDS011;3009;43.224;27.976;2023-02-22T07:25:20;13.93;;;6.33;;
5965;SDS011;3009;43.224;27.976;2023-02-22T07:27:51;11.30;;;6.37;;
5965;SDS011;3009;43.224;27.976;2023-02-22T07:30:20;11.47;;;5.70;;
5965;SDS011;3009;43.224;27.976;2023-02-22T07:32:51;6.03;;;5.43;;
5965;SDS011;3009;43.224;27.976;2023-02-22T07:35:21;6.70;;;5.60;;
5965;SDS011;3009;43.224;27.976;2023-02-22T07:37:53;8.03;;;5.60;;
5965;SDS011;3009;43.224;27.976;2023-02-22T07:40:22;5.93;;;5.33;;
5965;SDS011;3009;43.224;27.976;2023-02-22T07:42:53;6.90;;;6.13;;
5965;SDS011;3009;43.224;27.976;2023-02-22T07:45:23;12.83;;;6.43;;
5965;SDS011;3009;43.224;27.976;2023-02-22T07:47:53;7.23;;;6.07;;
5965;SDS011;3009;43.224;27.976;2023-02-22T07:50:22;8.60;;;6.07;;
5965;SDS011;3009;43.224;27.976;2023-02-22T07:52:53;6.43;;;5.73;;
5965;SDS011;3009;43.224;27.976;2023-02-22T07:55:23;8.03;;;6.20;;
5965;SDS011;3009;43.224;27.976;2023-02-22T07:57:55;8.73;;;5.60;;
5965;SDS011;3009;43.224;27.976;2023-02-22T08:00:25;7.87;;;5.67;;
5965;SDS011;3009;43.224;27.976;2023-02-22T08:02:54;7.63;;;5.90;;
5965;SDS011;3009;43.224;27.976;2023-02-22T08:05:24;7.47;;;6.10;;
5965;SDS011;3009;43.224;27.976;2023-02-22T08:07:53;11.27;;;6.90;;
5965;SDS011;3009;43.224;27.976;2023-02-22T08:10:22;9.10;;;6.50;;
5965;SDS011;3009;43.224;27.976;2023-02-22T08:12:52;7.73;;;6.93;;
5965;SDS011;3009;43.224;27.976;2023-02-22T08:15:23;10.90;;;6.80;;
5965;SDS011;3009;43.224;27.976;2023-02-22T08:17:54;5.83;;;5.30;;
5965;SDS011;3009;43.224;27.976;2023-02-22T08:20:24;6.53;;;5.03;;
5965;SDS011;3009;43.224;27.976;2023-02-22T08:22:52;8.00;;;5.83;;
5965;SDS011;3009;43.224;27.976;2023-02-22T08:25:22;11.83;;;6.40;;
5965;SDS011;3009;43.224;27.976;2023-02-22T08:27:55;12.67;;;6.13;;
5965;SDS011;3009;43.224;27.976;2023-02-22T08:30:27;8.43;;;5.33;;
5965;SDS011;3009;43.224;27.976;2023-02-22T08:32:57;6.60;;;6.00;;
5965;SDS011;3009;43.224;27.976;2023-02-22T08:35:26;8.33;;;6.50;;
5965;SDS011;3009;43.224;27.976;2023-02-22T08:37:55;10.23;;;6.40;;
5965;SDS011;3009;43.224;27.976;2023-02-22T08:40:25;7.03;;;6.37;;
5965;SDS011;3009;43.224;27.976;2023-02-22T08:42:57;9.03;;;5.70;;
5965;SDS011;3009;43.224;27.976;2023-02-22T08:45:27;7.60;;;6.67;;
5965;SDS011;3009;43.224;27.976;2023-02-22T08:47:56;8.97;;;5.70;;
5965;SDS011;3009;43.224;27.976;2023-02-22T08:50:25;5.93;;;5.30;;
5965;SDS011;3009;43.224;27.976;2023-02-22T08:52:55;7.60;;;5.23;;
5965;SDS011;3009;43.224;27.976;2023-02-22T08:55:26;7.50;;;6.50;;
5965;SDS011;3009;43.224;27.976;2023-02-22T08:57:59;9.00;;;6.93;;
5965;SDS011;3009;43.224;27.976;2023-02-22T09:00:30;6.00;;;5.20;;
5965;SDS011;3009;43.224;27.976;2023-02-22T09:03:00;6.83;;;5.70;;
5965;SDS011;3009;43.224;27.976;2023-02-22T09:05:29;5.53;;;5.03;;
5965;SDS011;3009;43.224;27.976;2023-02-22T09:07:57;9.20;;;6.00;;
5965;SDS011;3009;43.224;27.976;2023-02-22T09:10:26;7.80;;;6.13;;
5965;SDS011;3009;43.224;27.976;2023-02-22T09:12:56;7.77;;;6.57;;
5965;SDS011;3009;43.224;27.976;2023-02-22T09:15:27;7.90;;;6.27;;
5965;SDS011;3009;43.224;27.976;2023-02-22T09:17:57;14.50;;;6.97;;
5965;SDS011;3009;43.224;27.976;2023-02-22T09:20:26;6.60;;;5.43;;
5965;SDS011;3009;43.224;27.976;2023-02-22T09:22:55;7.03;;;6.33;;
5965;SDS011;3009;43.224;27.976;2023-02-22T09:25:23;6.03;;;5.50;;
5965;SDS011;3009;43.224;27.976;2023-02-22T09:27:52;8.17;;;6.30;;
5965;SDS011;3009;43.224;27.976;2023-02-22T09:30:24;5.90;;;5.30;;
5965;SDS011;3009;43.224;27.976;2023-02-22T09:32:58;12.63;;;6.10;;
5965;SDS011;3009;43.224;27.976;2023-02-22T09:35:27;5.93;;;5.43;;
5965;SDS011;3009;43.224;27.976;2023-02-22T09:37:56;9.40;;;5.87;;
5965;SDS011;3009;43.224;27.976;2023-02-22T09:40:27;10.60;;;5.77;;
5965;SDS011;3009;43.224;27.976;2023-02-22T09:43:03;7.57;;;6.40;;
5965;SDS011;3009;43.224;27.976;2023-02-22T09:45:46;9.03;;;5.90;;
5965;SDS011;3009;43.224;27.976;2023-02-22T09:48:28;5.60;;;5.10;;
5965;SDS011;3009;43.224;27.976;2023-02-22T09:50:58;8.70;;;5.70;;
5965;SDS011;3009;43.224;27.976;2023-02-22T09:53:30;6.97;;;5.53;;
5965;SDS011;3009;43.224;27.976;2023-02-22T09:56:03;6.00;;;5.40;;
5965;SDS011;3009;43.224;27.976;2023-02-22T09:58:37;12.47;;;5.40;;
5965;SDS011;3009;43.224;27.976;2023-02-22T10:01:19;11.13;;;5.43;;
5965;SDS011;3009;43.224;27.976;2023-02-22T10:03:55;7.77;;;6.07;;
5965;SDS011;3009;43.224;27.976;2023-02-22T10:06:28;10.10;;;5.50;;
5965;SDS011;3009;43.224;27.976;2023-02-22T10:09:00;7.80;;;5.53;;
5965;SDS011;3009;43.224;27.976;2023-02-22T10:11:41;6.03;;;5.30;;
5965;SDS011;3009;43.224;27.976;2023-02-22T10:14:30;8.43;;;5.80;;
5965;SDS011;3009;43.224;27.976;2023-02-22T10:17:13;7.43;;;4.87;;
5965;SDS011;3009;43.224;27.976;2023-02-22T10:19:53;7.40;;;5.50;;
5965;SDS011;3009;43.224;27.976;2023-02-22T10:22:34;9.30;;;5.30;;
5965;SDS011;3009;43.224;27.976;2023-02-22T10:25:12;8.77;;;5.70;;
5965;SDS011;3009;43.224;27.976;2023-02-22T10:27:44;7.43;;;5.50;;
5965;SDS011;3009;43.224;27.976;2023-02-22T10:30:16;11.23;;;5.20;;
5965;SDS011;3009;43.224;27.976;2023-02-22T10:32:53;10.93;;;6.43;;
5965;SDS011;3009;43.224;27.976;2023-02-22T10:35:26;10.40;;;5.93;;
5965;SDS011;3009;43.224;27.976;2023-02-22T10:37:57;6.70;;;6.10;;
5965;SDS011;3009;43.224;27.976;2023-02-22T10:40:30;7.80;;;6.53;;
5965;SDS011;3009;43.224;27.976;2023-02-22T10:43:02;9.20;;;6.43;;
5965;SDS011;3009;43.224;27.976;2023-02-22T10:45:32;7.07;;;6.37;;
5965;SDS011;3009;43.224;27.976;2023-02-22T10:48:04;7.50;;;6.70;;
5965;SDS011;3009;43.224;27.976;2023-02-22T10:50:37;9.87;;;6.13;;
5965;SDS011;3009;43.224;27.976;2023-02-22T10:53:08;11.43;;;6.60;;
5965;SDS011;3009;43.224;27.976;2023-02-22T10:55:37;6.93;;;6.10;;
5965;SDS011;3009;43.224;27.976;2023-02-22T10:58:50;7.63;;;6.10;;
5965;SDS011;3009;43.224;27.976;2023-02-22T11:01:22;6.90;;;6.30;;
5965;SDS011;3009;43.224;27.976;2023-02-22T11:03:58;11.33;;;7.10;;
5965;SDS011;3009;43.224;27.976;2023-02-22T11:06:30;28.03;;;6.17;;
5965;SDS011;3009;43.224;27.976;2023-02-22T11:09:05;7.90;;;6.00;;
5965;SDS011;3009;43.224;27.976;2023-02-22T11:11:37;7.13;;;6.43;;
5965;SDS011;3009;43.224;27.976;2023-02-22T11:14:06;7.47;;;6.00;;
5965;SDS011;3009;43.224;27.976;2023-02-22T11:16:36;7.33;;;5.37;;
5965;SDS011;3009;43.224;27.976;2023-02-22T11:19:18;8.57;;;5.03;;
5965;SDS011;3009;43.224;27.976;2023-02-22T11:21:50;7.87;;;5.33;;
5965;SDS011;3009;43.224;27.976;2023-02-22T11:24:21;5.70;;;5.20;;
5965;SDS011;3009;43.224;27.976;2023-02-22T11:26:59;5.67;;;4.20;;
5965;SDS011;3009;43.224;27.976;2023-02-22T11:29:33;5.17;;;3.90;;
5965;SDS011;3009;43.224;27.976;2023-02-22T11:32:15;10.83;;;4.50;;
5965;SDS011;3009;43.224;27.976;2023-02-22T11:34:49;5.90;;;4.20;;
5965;SDS011;3009;43.224;27.976;2023-02-22T11:37:34;5.53;;;4.23;;
5965;SDS011;3009;43.224;27.976;2023-02-22T11:40:05;4.00;;;3.60;;
5965;SDS011;3009;43.224;27.976;2023-02-22T11:42:39;3.83;;;2.80;;
5965;SDS011;3009;43.224;27.976;2023-02-22T11:45:08;3.80;;;3.33;;
5965;SDS011;3009;43.224;27.976;2023-02-22T11:47:53;3.03;;;2.83;;
5965;SDS011;3009;43.224;27.976;2023-02-22T11:50:27;5.70;;;3.73;;
5965;SDS011;3009;43.224;27.976;2023-02-22T11:53:07;6.53;;;3.30;;
5965;SDS011;3009;43.224;27.976;2023-02-22T11:55:52;4.93;;;2.90;;
5965;SDS011;3009;43.224;27.976;2023-02-22T11:58:38;3.33;;;3.13;;
5965;SDS011;3009;43.224;27.976;2023-02-22T12:01:15;2.80;;;2.60;;
5965;SDS011;3009;43.224;27.976;2023-02-22T12:10:07;3.40;;;3.10;;
5965;SDS011;3009;43.224;27.976;2023-02-22T12:12:58;7.20;;;3.67;;
5965;SDS011;3009;43.224;27.976;2023-02-22T12:15:36;3.87;;;3.47;;
5965;SDS011;3009;43.224;27.976;2023-02-22T12:18:12;3.33;;;3.13;;
5965;SDS011;3009;43.224;27.976;2023-02-22T12:20:52;3.40;;;3.20;;
5965;SDS011;3009;43.224;27.976;2023-02-22T12:23:24;5.20;;;3.00;;
5965;SDS011;3009;43.224;27.976;2023-02-22T12:26:00;3.80;;;3.40;;
5965;SDS011;3009;43.224;27.976;2023-02-22T12:28:33;3.83;;;3.47;;
5965;SDS011;3009;43.224;27.976;2023-02-22T12:31:13;3.50;;;3.10;;
5965;SDS011;3009;43.224;27.976;2023-02-22T12:33:48;3.53;;;3.23;;
5965;SDS011;3009;43.224;27.976;2023-02-22T12:36:23;3.10;;;2.80;;
5965;SDS011;3009;43.224;27.976;2023-02-22T12:38:59;4.27;;;3.03;;
5965;SDS011;3009;43.224;27.976;2023-02-22T12:41:37;5.03;;;3.27;;
5965;SDS011;3009;43.224;27.976;2023-02-22T12:44:13;4.07;;;3.20;;
5965;SDS011;3009;43.224;27.976;2023-02-22T12:46:46;8.53;;;3.77;;
5965;SDS011;3009;43.224;27.976;2023-02-22T12:49:19;3.83;;;3.53;;
5965;SDS011;3009;43.224;27.976;2023-02-22T12:51:54;4.27;;;3.87;;
5965;SDS011;3009;43.224;27.976;2023-02-22T12:54:49;5.53;;;3.93;;
5965;SDS011;3009;43.224;27.976;2023-02-22T12:57:25;4.70;;;3.60;;
5965;SDS011;3009;43.224;27.976;2023-02-22T13:00:04;4.63;;;4.17;;
5965;SDS011;3009;43.224;27.976;2023-02-22T13:02:37;4.97;;;3.60;;
5965;SDS011;3009;43.224;27.976;2023-02-22T13:05:12;4.60;;;3.87;;
5965;SDS011;3009;43.224;27.976;2023-02-22T13:07:44;4.13;;;3.70;;
5965;SDS011;3009;43.224;27.976;2023-02-22T13:10:26;6.73;;;3.93;;
5965;SDS011;3009;43.224;27.976;2023-02-22T13:13:05;5.33;;;4.23;;
5965;SDS011;3009;43.224;27.976;2023-02-22T13:15:43;6.17;;;3.90;;
5965;SDS011;3009;43.224;27.976;2023-02-22T13:18:18;4.13;;;3.83;;
5965;SDS011;3009;43.224;27.976;2023-02-22T13:20:53;3.53;;;3.20;;
5965;SDS011;3009;43.224;27.976;2023-02-22T13:23:30;3.60;;;3.30;;
5965;SDS011;3009;43.224;27.976;2023-02-22T13:26:10;4.10;;;3.33;;
5965;SDS011;3009;43.224;27.976;2023-02-22T13:28:49;3.87;;;3.53;;
5965;SDS011;3009;43.224;27.976;2023-02-22T13:31:29;4.27;;;4.00;;
5965;SDS011;3009;43.224;27.976;2023-02-22T13:37:25;4.60;;;4.00;;
5965;SDS011;3009;43.224;27.976;2023-02-22T13:40:28;4.03;;;3.37;;
5965;SDS011;3009;43.224;27.976;2023-02-22T13:43:14;3.73;;;3.30;;
5965;SDS011;3009;43.224;27.976;2023-02-22T13:46:04;4.23;;;3.43;;
5965;SDS011;3009;43.224;27.976;2023-02-22T13:51:57;3.97;;;3.67;;
5965;SDS011;3009;43.224;27.976;2023-02-22T13:54:28;4.30;;;3.87;;
5965;SDS011;3009;43.224;27.976;2023-02-22T13:57:16;4.23;;;3.90;;
5965;SDS011;3009;43.224;27.976;2023-02-22T13:59:46;4.00;;;3.70;;
5965;SDS011;3009;43.224;27.976;2023-02-22T14:02:33;3.87;;;3.57;;
5965;SDS011;3009;43.224;27.976;2023-02-22T14:14:22;8.13;;;4.50;;
5965;SDS011;3009;43.224;27.976;2023-02-22T14:23:22;4.57;;;3.43;;
5965;SDS011;3009;43.224;27.976;2023-02-22T14:25:56;5.60;;;3.60;;
5965;SDS011;3009;43.224;27.976;2023-02-22T14:28:39;3.50;;;3.20;;
5965;SDS011;3009;43.224;27.976;2023-02-22T14:31:14;3.93;;;3.17;;
5965;SDS011;3009;43.224;27.976;2023-02-22T14:34:02;3.60;;;3.20;;
5965;SDS011;3009;43.224;27.976;2023-02-22T14:36:35;7.43;;;2.67;;
5965;SDS011;3009;43.224;27.976;2023-02-22T14:39:12;5.20;;;3.67;;
5965;SDS011;3009;43.224;27.976;2023-02-22T14:41:48;8.47;;;3.77;;
5965;SDS011;3009;43.224;27.976;2023-02-22T14:44:24;3.57;;;3.37;;
5965;SDS011;3009;43.224;27.976;2023-02-22T14:46:55;7.13;;;3.40;;
5965;SDS011;3009;43.224;27.976;2023-02-22T14:49:27;5.10;;;3.27;;
5965;SDS011;3009;43.224;27.976;2023-02-22T14:52:05;4.53;;;2.80;;
5965;SDS011;3009;43.224;27.976;2023-02-22T14:54:47;6.77;;;3.63;;
5965;SDS011;3009;43.224;27.976;2023-02-22T14:57:24;5.30;;;3.10;;
5965;SDS011;3009;43.224;27.976;2023-02-22T15:00:04;8.10;;;3.20;;
5965;SDS011;3009;43.224;27.976;2023-02-22T15:02:45;3.90;;;2.73;;
5965;SDS011;3009;43.224;27.976;2023-02-22T15:05:15;2.90;;;2.60;;
5965;SDS011;3009;43.224;27.976;2023-02-22T15:07:52;4.80;;;3.17;;
5965;SDS011;3009;43.224;27.976;2023-02-22T15:10:23;5.53;;;2.90;;
5965;SDS011;3009;43.224;27.976;2023-02-22T15:12:55;3.17;;;2.60;;
5965;SDS011;3009;43.224;27.976;2023-02-22T15:15:36;5.80;;;4.43;;
5965;SDS011;3009;43.224;27.976;2023-02-22T15:18:13;4.63;;;2.80;;
5965;SDS011;3009;43.224;27.976;2023-02-22T15:20:47;3.30;;;3.00;;
5965;SDS011;3009;43.224;27.976;2023-02-22T15:23:25;3.00;;;2.80;;
5965;SDS011;3009;43.224;27.976;2023-02-22T15:25:58;6.40;;;3.60;;
5965;SDS011;3009;43.224;27.976;2023-02-22T15:28:27;3.93;;;3.03;;
5965;SDS011;3009;43.224;27.976;2023-02-22T15:31:13;4.87;;;2.77;;
5965;SDS011;3009;43.224;27.976;2023-02-22T15:33:43;2.87;;;2.50;;
5965;SDS011;3009;43.224;27.976;2023-02-22T15:36:13;3.93;;;3.10;;
5965;SDS011;3009;43.224;27.976;2023-02-22T15:38:47;4.73;;;3.00;;
5965;SDS011;3009;43.224;27.976;2023-02-22T15:41:20;6.23;;;2.70;;
5965;SDS011;3009;43.224;27.976;2023-02-22T15:44:00;3.77;;;3.40;;
5965;SDS011;3009;43.224;27.976;2023-02-22T15:46:46;5.13;;;3.30;;
5965;SDS011;3009;43.224;27.976;2023-02-22T15:49:19;4.83;;;3.77;;
5965;SDS011;3009;43.224;27.976;2023-02-22T15:52:00;5.17;;;3.07;;
5965;SDS011;3009;43.224;27.976;2023-02-22T15:54:43;3.60;;;2.90;;
5965;SDS011;3009;43.224;27.976;2023-02-22T15:57:15;4.83;;;3.20;;
5965;SDS011;3009;43.224;27.976;2023-02-22T15:59:47;5.97;;;3.00;;
5965;SDS011;3009;43.224;27.976;2023-02-22T16:02:29;3.03;;;2.77;;
5965;SDS011;3009;43.224;27.976;2023-02-22T16:05:02;5.47;;;3.10;;
5965;SDS011;3009;43.224;27.976;2023-02-22T16:07:35;4.90;;;3.20;;